sensor_id;sensor_type;location;lat;lon;timestamp;pressure;altitude;pressure_sealevel;temperature;humidity
79589;BME280;69067;51.930;4.492;2023-07-28T00:02:10;100416.78;;;25.94;49.66
79589;BME280;69067;51.930;4.492;2023-07-28T00:04:37;100413.72;;;25.90;49.94
79589;BME280;69067;51.930;4.492;2023-07-28T00:07:03;100415.00;;;25.87;49.63
79589;BME280;69067;51.930;4.492;2023-07-28T00:09:30;100421.06;;;26.01;49.63
79589;BME280;69067;51.930;4.492;2023-07-28T00:11:57;100418.78;;;25.86;50.11
79589;BME280;69067;51.930;4.492;2023-07-28T00:14:25;100423.34;;;26.04;49.83
79589;BME280;69067;51.930;4.492;2023-07-28T00:16:52;100423.25;;;26.11;49.16
79589;BME280;69067;51.930;4.492;2023-07-28T00:19:19;100422.84;;;25.96;50.25
79589;BME280;69067;51.930;4.492;2023-07-28T00:21:50;100427.00;;;25.98;49.88
79589;BME280;69067;51.930;4.492;2023-07-28T00:24:17;100425.97;;;25.99;49.96
79589;BME280;69067;51.930;4.492;2023-07-28T00:26:43;100424.41;;;26.03;49.44
79589;BME280;69067;51.930;4.492;2023-07-28T00:29:09;100425.22;;;25.92;50.48
79589;BME280;69067;51.930;4.492;2023-07-28T00:31:35;100412.03;;;25.89;50.09
79589;BME280;69067;51.930;4.492;2023-07-28T00:34:02;100421.06;;;25.89;50.54
79589;BME280;69067;51.930;4.492;2023-07-28T00:36:29;100415.25;;;25.86;50.54
79589;BME280;69067;51.930;4.492;2023-07-28T00:38:55;100410.16;;;25.89;50.01
79589;BME280;69067;51.930;4.492;2023-07-28T00:41:21;100411.34;;;25.94;49.53
79589;BME280;69067;51.930;4.492;2023-07-28T00:43:47;100411.22;;;26.00;49.78
79589;BME280;69067;51.930;4.492;2023-07-28T00:46:14;100418.13;;;26.03;50.10
79589;BME280;69067;51.930;4.492;2023-07-28T00:48:40;100412.31;;;25.99;49.61
79589;BME280;69067;51.930;4.492;2023-07-28T00:51:10;100418.50;;;26.06;49.37
79589;BME280;69067;51.930;4.492;2023-07-28T00:53:36;100418.13;;;26.03;49.47
79589;BME280;69067;51.930;4.492;2023-07-28T00:56:04;100416.44;;;26.02;49.94
79589;BME280;69067;51.930;4.492;2023-07-28T00:58:31;100424.28;;;25.98;49.51
79589;BME280;69067;51.930;4.492;2023-07-28T01:00:58;100424.06;;;26.00;49.95
79589;BME280;69067;51.930;4.492;2023-07-28T01:03:25;100421.56;;;25.98;50.48
79589;BME280;69067;51.930;4.492;2023-07-28T01:09:16;100424.50;;;25.97;50.04
79589;BME280;69067;51.930;4.492;2023-07-28T01:11:58;100432.00;;;26.01;50.19
79589;BME280;69067;51.930;4.492;2023-07-28T01:14:25;100422.84;;;26.07;50.01
79589;BME280;69067;51.930;4.492;2023-07-28T01:16:51;100419.69;;;26.10;49.55
79589;BME280;69067;51.930;4.492;2023-07-28T01:19:20;100398.41;;;26.01;49.46
79589;BME280;69067;51.930;4.492;2023-07-28T01:21:59;100407.09;;;26.09;49.93
79589;BME280;69067;51.930;4.492;2023-07-28T01:24:53;100419.50;;;25.94;50.60
79589;BME280;69067;51.930;4.492;2023-07-28T01:27:24;100417.78;;;26.11;49.74
79589;BME280;69067;51.930;4.492;2023-07-28T01:29:50;100414.44;;;25.97;50.21
79589;BME280;69067;51.930;4.492;2023-07-28T01:32:16;100409.22;;;25.96;49.97
79589;BME280;69067;51.930;4.492;2023-07-28T01:34:42;100408.50;;;26.00;50.06
79589;BME280;69067;51.930;4.492;2023-07-28T01:37:08;100412.78;;;26.08;49.49
79589;BME280;69067;51.930;4.492;2023-07-28T01:39:34;100410.88;;;25.97;49.86
79589;BME280;69067;51.930;4.492;2023-07-28T01:41:59;100416.56;;;25.95;50.57
79589;BME280;69067;51.930;4.492;2023-07-28T01:44:25;100406.97;;;25.93;49.83
79589;BME280;69067;51.930;4.492;2023-07-28T01:46:51;100421.91;;;26.02;49.56
79589;BME280;69067;51.930;4.492;2023-07-28T01:49:17;100422.28;;;26.05;49.24
79589;BME280;69067;51.930;4.492;2023-07-28T01:51:42;100414.06;;;25.94;50.02
79589;BME280;69067;51.930;4.492;2023-07-28T01:54:08;100432.25;;;26.00;50.02
79589;BME280;69067;51.930;4.492;2023-07-28T01:56:35;100437.00;;;26.04;49.74
79589;BME280;69067;51.930;4.492;2023-07-28T01:59:00;100431.53;;;26.04;49.57
79589;BME280;69067;51.930;4.492;2023-07-28T02:01:26;100429.00;;;25.91;50.47
79589;BME280;69067;51.930;4.492;2023-07-28T02:03:52;100413.88;;;26.07;50.25
79589;BME280;69067;51.930;4.492;2023-07-28T02:06:19;100407.22;;;26.14;49.62
79589;BME280;69067;51.930;4.492;2023-07-28T02:08:44;100423.69;;;26.08;49.64
79589;BME280;69067;51.930;4.492;2023-07-28T02:11:10;100417.41;;;25.96;50.29
79589;BME280;69067;51.930;4.492;2023-07-28T02:13:37;100417.50;;;26.01;49.46
79589;BME280;69067;51.930;4.492;2023-07-28T02:16:02;100416.34;;;26.08;49.67
79589;BME280;69067;51.930;4.492;2023-07-28T02:18:28;100409.44;;;25.94;50.22
79589;BME280;69067;51.930;4.492;2023-07-28T02:20:54;100409.91;;;25.91;50.70
79589;BME280;69067;51.930;4.492;2023-07-28T02:23:20;100410.41;;;26.00;49.51
79589;BME280;69067;51.930;4.492;2023-07-28T02:25:45;100425.47;;;26.02;49.78
79589;BME280;69067;51.930;4.492;2023-07-28T02:28:11;100421.78;;;25.97;50.36
79589;BME280;69067;51.930;4.492;2023-07-28T02:30:37;100426.53;;;26.01;50.13
79589;BME280;69067;51.930;4.492;2023-07-28T02:33:03;100421.56;;;25.98;49.67
79589;BME280;69067;51.930;4.492;2023-07-28T02:35:29;100430.81;;;25.97;50.04
79589;BME280;69067;51.930;4.492;2023-07-28T02:37:57;100422.28;;;26.05;49.62
79589;BME280;69067;51.930;4.492;2023-07-28T02:40:23;100420.72;;;25.98;49.59
79589;BME280;69067;51.930;4.492;2023-07-28T02:42:49;100425.25;;;26.04;50.36
79589;BME280;69067;51.930;4.492;2023-07-28T02:45:15;100433.19;;;26.05;49.87
79589;BME280;69067;51.930;4.492;2023-07-28T02:47:41;100437.00;;;26.04;50.26
79589;BME280;69067;51.930;4.492;2023-07-28T02:50:06;100427.38;;;26.02;50.42
79589;BME280;69067;51.930;4.492;2023-07-28T02:52:32;100422.13;;;25.88;49.98
79589;BME280;69067;51.930;4.492;2023-07-28T02:54:58;100419.31;;;26.07;49.90
79589;BME280;69067;51.930;4.492;2023-07-28T02:57:24;100439.00;;;26.09;50.04
79589;BME280;69067;51.930;4.492;2023-07-28T02:59:49;100431.41;;;25.99;49.62
79589;BME280;69067;51.930;4.492;2023-07-28T03:02:15;100435.78;;;26.00;49.44
79589;BME280;69067;51.930;4.492;2023-07-28T03:04:41;100447.91;;;26.04;49.84
79589;BME280;69067;51.930;4.492;2023-07-28T03:07:07;100445.63;;;26.01;49.74
79589;BME280;69067;51.930;4.492;2023-07-28T03:09:32;100445.28;;;26.09;50.13
79589;BME280;69067;51.930;4.492;2023-07-28T03:11:58;100454.31;;;25.98;49.64
79589;BME280;69067;51.930;4.492;2023-07-28T03:14:24;100454.44;;;26.15;49.64
79589;BME280;69067;51.930;4.492;2023-07-28T03:16:49;100446.78;;;25.94;50.22
79589;BME280;69067;51.930;4.492;2023-07-28T03:19:15;100444.13;;;26.05;50.06
79589;BME280;69067;51.930;4.492;2023-07-28T03:21:42;100451.34;;;26.00;49.93
79589;BME280;69067;51.930;4.492;2023-07-28T03:24:08;100454.66;;;26.02;50.49
79589;BME280;69067;51.930;4.492;2023-07-28T03:26:34;100449.81;;;26.15;49.36
79589;BME280;69067;51.930;4.492;2023-07-28T03:29:00;100446.13;;;26.10;49.44
79589;BME280;69067;51.930;4.492;2023-07-28T03:31:25;100453.59;;;26.14;49.67
79589;BME280;69067;51.930;4.492;2023-07-28T03:33:51;100451.13;;;26.13;50.33
79589;BME280;69067;51.930;4.492;2023-07-28T03:36:17;100446.34;;;25.97;50.02
79589;BME280;69067;51.930;4.492;2023-07-28T03:38:44;100456.31;;;26.03;49.67
79589;BME280;69067;51.930;4.492;2023-07-28T03:41:10;100450.84;;;26.03;50.63
79589;BME280;69067;51.930;4.492;2023-07-28T03:43:36;100444.97;;;26.17;49.41
79589;BME280;69067;51.930;4.492;2023-07-28T03:46:02;100455.66;;;26.19;49.78
79589;BME280;69067;51.930;4.492;2023-07-28T03:48:27;100465.72;;;26.07;49.81
79589;BME280;69067;51.930;4.492;2023-07-28T03:50:53;100463.53;;;25.97;50.61
79589;BME280;69067;51.930;4.492;2023-07-28T03:53:19;100462.47;;;25.98;50.61
79589;BME280;69067;51.930;4.492;2023-07-28T03:55:45;100464.06;;;26.17;49.27
79589;BME280;69067;51.930;4.492;2023-07-28T03:58:10;100462.16;;;26.06;49.97
79589;BME280;69067;51.930;4.492;2023-07-28T04:00:36;100447.72;;;25.87;50.23
79589;BME280;69067;51.930;4.492;2023-07-28T04:03:02;100478.00;;;25.86;50.82
79589;BME280;69067;51.930;4.492;2023-07-28T04:05:27;100468.28;;;26.02;49.83
79589;BME280;69067;51.930;4.492;2023-07-28T04:07:53;100470.47;;;26.11;49.58
79589;BME280;69067;51.930;4.492;2023-07-28T04:10:19;100472.59;;;26.21;49.52
79589;BME280;69067;51.930;4.492;2023-07-28T04:12:45;100466.41;;;26.02;49.91
79589;BME280;69067;51.930;4.492;2023-07-28T04:15:11;100472.66;;;25.91;50.86
79589;BME280;69067;51.930;4.492;2023-07-28T04:17:36;100471.59;;;25.92;50.32
79589;BME280;69067;51.930;4.492;2023-07-28T04:20:02;100472.34;;;25.99;49.71
79589;BME280;69067;51.930;4.492;2023-07-28T04:22:28;100470.56;;;26.05;49.08
79589;BME280;69067;51.930;4.492;2023-07-28T04:24:54;100474.81;;;26.01;50.35
79589;BME280;69067;51.930;4.492;2023-07-28T04:27:19;100477.94;;;26.16;49.81
79589;BME280;69067;51.930;4.492;2023-07-28T04:29:45;100470.19;;;26.01;50.05
79589;BME280;69067;51.930;4.492;2023-07-28T04:32:11;100478.78;;;26.16;50.05
79589;BME280;69067;51.930;4.492;2023-07-28T04:34:37;100472.25;;;26.17;49.55
79589;BME280;69067;51.930;4.492;2023-07-28T04:37:02;100474.13;;;26.05;50.26
79589;BME280;69067;51.930;4.492;2023-07-28T04:39:30;100472.97;;;26.13;49.52
79589;BME280;69067;51.930;4.492;2023-07-28T04:41:55;100477.59;;;26.12;49.88
79589;BME280;69067;51.930;4.492;2023-07-28T04:44:21;100481.84;;;26.08;49.51
79589;BME280;69067;51.930;4.492;2023-07-28T04:46:47;100484.19;;;25.93;49.90
79589;BME280;69067;51.930;4.492;2023-07-28T04:49:16;100477.59;;;26.12;49.76
79589;BME280;69067;51.930;4.492;2023-07-28T04:51:42;100475.06;;;25.99;49.89
79589;BME280;69067;51.930;4.492;2023-07-28T04:54:07;100478.97;;;26.03;49.61
79589;BME280;69067;51.930;4.492;2023-07-28T04:56:33;100480.44;;;26.17;49.63
79589;BME280;69067;51.930;4.492;2023-07-28T04:58:59;100486.94;;;26.05;49.81
79589;BME280;69067;51.930;4.492;2023-07-28T05:01:25;100480.06;;;26.14;49.62
79589;BME280;69067;51.930;4.492;2023-07-28T05:03:51;100487.06;;;26.10;49.54
79589;BME280;69067;51.930;4.492;2023-07-28T05:06:17;100475.91;;;26.11;50.04
79589;BME280;69067;51.930;4.492;2023-07-28T05:08:43;100482.31;;;26.05;49.91
79589;BME280;69067;51.930;4.492;2023-07-28T05:11:09;100485.63;;;26.07;49.95
79589;BME280;69067;51.930;4.492;2023-07-28T05:13:34;100481.25;;;26.06;50.05
79589;BME280;69067;51.930;4.492;2023-07-28T05:16:00;100471.84;;;26.02;49.74
79589;BME280;69067;51.930;4.492;2023-07-28T05:18:26;100485.38;;;25.97;49.98
79589;BME280;69067;51.930;4.492;2023-07-28T05:20:52;100484.81;;;26.07;49.83
79589;BME280;69067;51.930;4.492;2023-07-28T05:23:17;100480.66;;;26.04;50.16
79589;BME280;69067;51.930;4.492;2023-07-28T05:25:43;100485.53;;;26.14;49.35
79589;BME280;69067;51.930;4.492;2023-07-28T05:28:09;100501.19;;;26.07;49.28
79589;BME280;69067;51.930;4.492;2023-07-28T05:30:35;100502.38;;;26.11;49.41
79589;BME280;69067;51.930;4.492;2023-07-28T05:33:00;100506.00;;;25.93;50.71
79589;BME280;69067;51.930;4.492;2023-07-28T05:35:26;100506.00;;;25.93;50.60
79589;BME280;69067;51.930;4.492;2023-07-28T05:37:52;100505.00;;;26.17;50.08
79589;BME280;69067;51.930;4.492;2023-07-28T05:40:17;100510.06;;;26.02;49.94
79589;BME280;69067;51.930;4.492;2023-07-28T05:42:43;100509.84;;;26.15;49.69
79589;BME280;69067;51.930;4.492;2023-07-28T05:45:09;100505.22;;;26.16;50.20
79589;BME280;69067;51.930;4.492;2023-07-28T05:47:35;100501.09;;;26.13;49.98
79589;BME280;69067;51.930;4.492;2023-07-28T05:50:01;100510.47;;;26.17;49.85
79589;BME280;69067;51.930;4.492;2023-07-28T05:52:27;100513.53;;;26.21;50.01
79589;BME280;69067;51.930;4.492;2023-07-28T05:54:52;100510.47;;;26.17;50.10
79589;BME280;69067;51.930;4.492;2023-07-28T05:57:19;100511.53;;;26.16;50.36
79589;BME280;69067;51.930;4.492;2023-07-28T05:59:45;100511.16;;;26.13;49.58
79589;BME280;69067;51.930;4.492;2023-07-28T06:02:12;100518.66;;;26.17;49.58
79589;BME280;69067;51.930;4.492;2023-07-28T06:04:37;100528.97;;;26.15;49.70
79589;BME280;69067;51.930;4.492;2023-07-28T06:07:03;100522.44;;;26.16;49.73
79589;BME280;69067;51.930;4.492;2023-07-28T06:09:29;100526.63;;;26.19;49.57
79589;BME280;69067;51.930;4.492;2023-07-28T06:11:55;100527.44;;;26.19;49.40
79589;BME280;69067;51.930;4.492;2023-07-28T06:14:20;100531.56;;;26.10;49.86
79589;BME280;69067;51.930;4.492;2023-07-28T06:16:46;100525.66;;;26.13;49.67
79589;BME280;69067;51.930;4.492;2023-07-28T06:19:12;100534.56;;;26.20;49.88
79589;BME280;69067;51.930;4.492;2023-07-28T06:21:38;100529.03;;;25.97;50.45
79589;BME280;69067;51.930;4.492;2023-07-28T06:24:03;100542.16;;;26.18;49.85
79589;BME280;69067;51.930;4.492;2023-07-28T06:26:29;100553.75;;;26.14;49.66
79589;BME280;69067;51.930;4.492;2023-07-28T06:28:55;100542.94;;;26.07;49.68
79589;BME280;69067;51.930;4.492;2023-07-28T06:31:21;100547.19;;;26.03;49.96
79589;BME280;69067;51.930;4.492;2023-07-28T06:33:47;100546.00;;;25.99;50.08
79589;BME280;69067;51.930;4.492;2023-07-28T06:36:13;100557.97;;;25.98;50.78
79589;BME280;69067;51.930;4.492;2023-07-28T06:38:39;100562.44;;;26.22;49.17
79589;BME280;69067;51.930;4.492;2023-07-28T06:41:04;100555.59;;;26.02;49.37
79589;BME280;69067;51.930;4.492;2023-07-28T06:43:30;100562.63;;;26.09;50.23
79589;BME280;69067;51.930;4.492;2023-07-28T06:45:56;100560.38;;;26.06;50.26
79589;BME280;69067;51.930;4.492;2023-07-28T06:48:22;100557.22;;;26.21;49.36
79589;BME280;69067;51.930;4.492;2023-07-28T06:50:47;100554.84;;;26.13;49.62
79589;BME280;69067;51.930;4.492;2023-07-28T06:53:13;100556.03;;;26.17;49.34
79589;BME280;69067;51.930;4.492;2023-07-28T06:55:39;100562.41;;;26.11;50.07
79589;BME280;69067;51.930;4.492;2023-07-28T06:58:06;100558.41;;;26.13;49.22
79589;BME280;69067;51.930;4.492;2023-07-28T07:00:32;100565.59;;;26.26;49.27
79589;BME280;69067;51.930;4.492;2023-07-28T07:02:59;100568.38;;;26.19;49.58
79589;BME280;69067;51.930;4.492;2023-07-28T07:05:24;100577.94;;;26.10;50.12
79589;BME280;69067;51.930;4.492;2023-07-28T07:07:50;100584.75;;;26.19;49.80
79589;BME280;69067;51.930;4.492;2023-07-28T07:10:16;100574.81;;;25.95;50.24
79589;BME280;69067;51.930;4.492;2023-07-28T07:12:42;100579.06;;;25.91;50.42
79589;BME280;69067;51.930;4.492;2023-07-28T07:15:08;100576.84;;;26.00;50.26
79589;BME280;69067;51.930;4.492;2023-07-28T07:17:34;100581.84;;;26.03;50.41
79589;BME280;69067;51.930;4.492;2023-07-28T07:19:59;100580.16;;;26.02;49.93
79589;BME280;69067;51.930;4.492;2023-07-28T07:22:25;100603.66;;;26.03;49.39
79589;BME280;69067;51.930;4.492;2023-07-28T07:24:51;100588.25;;;26.08;50.26
79589;BME280;69067;51.930;4.492;2023-07-28T07:27:16;100586.31;;;25.97;50.54
79589;BME280;69067;51.930;4.492;2023-07-28T07:29:42;100589.41;;;26.01;50.20
79589;BME280;69067;51.930;4.492;2023-07-28T07:32:08;100596.44;;;26.08;50.21
79589;BME280;69067;51.930;4.492;2023-07-28T07:34:35;100576.94;;;25.93;50.12
79589;BME280;69067;51.930;4.492;2023-07-28T07:37:02;100594.38;;;25.92;50.32
79589;BME280;69067;51.930;4.492;2023-07-28T07:39:28;100590.41;;;25.88;50.50
79589;BME280;69067;51.930;4.492;2023-07-28T07:41:54;100598.22;;;26.03;50.50
79589;BME280;69067;51.930;4.492;2023-07-28T07:44:20;100595.22;;;25.93;50.79
79589;BME280;69067;51.930;4.492;2023-07-28T07:46:45;100596.03;;;25.93;50.56
79589;BME280;69067;51.930;4.492;2023-07-28T07:49:11;100604.22;;;25.93;50.22
79589;BME280;69067;51.930;4.492;2023-07-28T07:51:37;100603.56;;;26.09;49.89
79589;BME280;69067;51.930;4.492;2023-07-28T07:54:03;100612.81;;;26.08;50.07
79589;BME280;69067;51.930;4.492;2023-07-28T07:56:29;100617.03;;;25.93;50.83
79589;BME280;69067;51.930;4.492;2023-07-28T07:58:55;100615.88;;;26.00;51.33
79589;BME280;69067;51.930;4.492;2023-07-28T08:01:20;100605.13;;;25.87;50.61
79589;BME280;69067;51.930;4.492;2023-07-28T08:03:47;100614.22;;;25.99;50.72
79589;BME280;69067;51.930;4.492;2023-07-28T08:06:13;100609.53;;;25.88;50.93
79589;BME280;69067;51.930;4.492;2023-07-28T08:08:38;100619.28;;;25.96;51.64
79589;BME280;69067;51.930;4.492;2023-07-28T08:11:05;100616.41;;;25.91;51.13
79589;BME280;69067;51.930;4.492;2023-07-28T08:13:31;100613.91;;;25.89;51.32
79589;BME280;69067;51.930;4.492;2023-07-28T08:15:57;100615.88;;;26.00;50.57
79589;BME280;69067;51.930;4.492;2023-07-28T08:18:22;100626.41;;;25.97;50.99
79589;BME280;69067;51.930;4.492;2023-07-28T08:20:48;100630.13;;;26.02;51.19
79589;BME280;69067;51.930;4.492;2023-07-28T08:23:14;100625.22;;;25.93;51.54
79589;BME280;69067;51.930;4.492;2023-07-28T08:25:40;100631.19;;;26.01;51.24
79589;BME280;69067;51.930;4.492;2023-07-28T08:28:06;100620.13;;;25.96;50.80
79589;BME280;69067;51.930;4.492;2023-07-28T08:30:32;100622.09;;;25.89;50.95
79589;BME280;69067;51.930;4.492;2023-07-28T08:32:58;100633.63;;;25.91;51.49
79589;BME280;69067;51.930;4.492;2023-07-28T08:35:23;100635.53;;;25.91;51.14
79589;BME280;69067;51.930;4.492;2023-07-28T08:37:49;100635.88;;;25.94;50.90
79589;BME280;69067;51.930;4.492;2023-07-28T08:40:16;100643.00;;;25.95;51.63
79589;BME280;69067;51.930;4.492;2023-07-28T08:42:41;100633.31;;;25.99;51.04
79589;BME280;69067;51.930;4.492;2023-07-28T08:45:08;100629.84;;;25.92;50.95
79589;BME280;69067;51.930;4.492;2023-07-28T08:47:35;100637.78;;;25.94;51.46
79589;BME280;69067;51.930;4.492;2023-07-28T08:50:02;100648.59;;;26.00;51.21
79589;BME280;69067;51.930;4.492;2023-07-28T08:52:28;100641.66;;;25.86;51.18
79589;BME280;69067;51.930;4.492;2023-07-28T08:54:54;100640.13;;;25.90;51.37
79589;BME280;69067;51.930;4.492;2023-07-28T08:57:20;100628.63;;;25.88;50.90
79589;BME280;69067;51.930;4.492;2023-07-28T08:59:46;100638.03;;;25.92;51.25
79589;BME280;69067;51.930;4.492;2023-07-28T09:02:17;100646.50;;;26.02;50.92
79589;BME280;69067;51.930;4.492;2023-07-28T09:04:45;100650.84;;;25.92;51.01
79589;BME280;69067;51.930;4.492;2023-07-28T09:07:14;100642.03;;;25.89;51.53
79589;BME280;69067;51.930;4.492;2023-07-28T09:09:40;100641.34;;;25.94;50.83
79589;BME280;69067;51.930;4.492;2023-07-28T09:12:07;100645.38;;;25.92;51.49
79589;BME280;69067;51.930;4.492;2023-07-28T09:14:37;100631.81;;;25.85;51.46
79589;BME280;69067;51.930;4.492;2023-07-28T09:17:12;100647.13;;;25.86;50.89
79589;BME280;69067;51.930;4.492;2023-07-28T09:19:50;100635.00;;;25.82;51.57
79589;BME280;69067;51.930;4.492;2023-07-28T09:22:17;100646.88;;;25.87;51.70
79589;BME280;69067;51.930;4.492;2023-07-28T09:24:43;100643.22;;;25.94;50.67
79589;BME280;69067;51.930;4.492;2023-07-28T09:27:22;100649.53;;;25.94;51.56
79589;BME280;69067;51.930;4.492;2023-07-28T09:29:51;100642.88;;;25.90;51.25
79589;BME280;69067;51.930;4.492;2023-07-28T09:32:29;100656.94;;;25.87;51.95
79589;BME280;69067;51.930;4.492;2023-07-28T09:35:11;100657.22;;;25.85;51.92
79589;BME280;69067;51.930;4.492;2023-07-28T09:37:40;100656.13;;;25.86;51.47
79589;BME280;69067;51.930;4.492;2023-07-28T09:40:12;100652.63;;;25.79;51.63
79589;BME280;69067;51.930;4.492;2023-07-28T09:42:48;100655.75;;;25.83;52.06
79589;BME280;69067;51.930;4.492;2023-07-28T09:45:16;100654.91;;;25.82;51.72
79589;BME280;69067;51.930;4.492;2023-07-28T09:47:47;100659.47;;;25.88;51.37
79589;BME280;69067;51.930;4.492;2023-07-28T09:50:18;100658.03;;;25.86;51.21
79589;BME280;69067;51.930;4.492;2023-07-28T09:52:53;100664.31;;;25.86;51.58
79589;BME280;69067;51.930;4.492;2023-07-28T09:55:20;100663.09;;;25.82;51.30
79589;BME280;69067;51.930;4.492;2023-07-28T09:57:51;100660.06;;;25.91;51.55
79589;BME280;69067;51.930;4.492;2023-07-28T10:00:21;100661.13;;;25.89;51.13
79589;BME280;69067;51.930;4.492;2023-07-28T10:02:49;100664.47;;;25.92;50.88
79589;BME280;69067;51.930;4.492;2023-07-28T10:05:16;100663.50;;;25.86;51.63
79589;BME280;69067;51.930;4.492;2023-07-28T10:07:46;100676.38;;;25.97;50.99
79589;BME280;69067;51.930;4.492;2023-07-28T10:10:14;100676.59;;;25.96;51.62
79589;BME280;69067;51.930;4.492;2023-07-28T10:12:51;100676.81;;;25.94;51.56
79589;BME280;69067;51.930;4.492;2023-07-28T10:15:20;100678.69;;;25.94;51.57
79589;BME280;69067;51.930;4.492;2023-07-28T10:17:53;100682.97;;;25.89;51.59
79589;BME280;69067;51.930;4.492;2023-07-28T10:20:35;100678.94;;;25.92;50.57
79589;BME280;69067;51.930;4.492;2023-07-28T10:23:17;100682.50;;;25.93;51.04
79589;BME280;69067;51.930;4.492;2023-07-28T10:25:46;100679.38;;;25.89;51.27
79589;BME280;69067;51.930;4.492;2023-07-28T10:28:38;100676.59;;;25.96;50.93
79589;BME280;69067;51.930;4.492;2023-07-28T10:31:09;100689.88;;;25.92;51.65
79589;BME280;69067;51.930;4.492;2023-07-28T10:33:48;100685.25;;;25.93;51.38
79589;BME280;69067;51.930;4.492;2023-07-28T10:39:00;100684.63;;;25.91;51.02
79589;BME280;69067;51.930;4.492;2023-07-28T10:41:28;100688.34;;;25.96;50.79
79589;BME280;69067;51.930;4.492;2023-07-28T10:43:56;100691.69;;;25.98;50.80
79589;BME280;69067;51.930;4.492;2023-07-28T10:46:22;100683.63;;;26.03;50.95
79589;BME280;69067;51.930;4.492;2023-07-28T10:48:50;100693.94;;;26.01;50.88
79589;BME280;69067;51.930;4.492;2023-07-28T10:51:23;100695.31;;;25.92;50.51
79589;BME280;69067;51.930;4.492;2023-07-28T10:53:57;100690.63;;;25.99;51.00
79589;BME280;69067;51.930;4.492;2023-07-28T10:56:26;100701.28;;;26.01;50.70
79589;BME280;69067;51.930;4.492;2023-07-28T10:58:59;100701.13;;;25.96;50.79
79589;BME280;69067;51.930;4.492;2023-07-28T11:01:38;100712.28;;;25.94;51.11
79589;BME280;69067;51.930;4.492;2023-07-28T11:04:14;100706.38;;;25.97;50.82
79589;BME280;69067;51.930;4.492;2023-07-28T11:06:46;100707.44;;;25.96;50.87
79589;BME280;69067;51.930;4.492;2023-07-28T11:09:16;100712.97;;;25.89;51.41
79589;BME280;69067;51.930;4.492;2023-07-28T11:11:44;100699.09;;;25.91;51.33
79589;BME280;69067;51.930;4.492;2023-07-28T11:14:11;100699.72;;;25.93;50.62
79589;BME280;69067;51.930;4.492;2023-07-28T11:16:39;100706.38;;;25.97;50.85
79589;BME280;69067;51.930;4.492;2023-07-28T11:19:11;100708.34;;;25.90;50.71
79589;BME280;69067;51.930;4.492;2023-07-28T11:21:38;100707.06;;;25.93;51.20
79589;BME280;69067;51.930;4.492;2023-07-28T11:24:09;100706.59;;;25.96;51.06
79589;BME280;69067;51.930;4.492;2023-07-28T11:26:38;100702.88;;;25.90;51.39
79589;BME280;69067;51.930;4.492;2023-07-28T11:29:05;100703.66;;;25.97;50.99
79589;BME280;69067;51.930;4.492;2023-07-28T11:31:32;100705.00;;;25.88;51.14
79589;BME280;69067;51.930;4.492;2023-07-28T11:34:01;100706.06;;;26.05;50.81
79589;BME280;69067;51.930;4.492;2023-07-28T11:36:29;100712.44;;;25.99;51.00
79589;BME280;69067;51.930;4.492;2023-07-28T11:38:58;100718.34;;;25.96;50.73
79589;BME280;69067;51.930;4.492;2023-07-28T11:41:26;100712.06;;;25.96;51.04
79589;BME280;69067;51.930;4.492;2023-07-28T11:43:53;100707.44;;;25.96;50.67
79589;BME280;69067;51.930;4.492;2023-07-28T11:46:33;100720.63;;;25.99;51.45
79589;BME280;69067;51.930;4.492;2023-07-28T11:49:17;100717.44;;;26.02;50.61
79589;BME280;69067;51.930;4.492;2023-07-28T11:51:50;100708.28;;;25.97;50.91
79589;BME280;69067;51.930;4.492;2023-07-28T11:54:18;100716.22;;;25.98;50.78
79589;BME280;69067;51.930;4.492;2023-07-28T11:56:49;100717.28;;;25.97;51.17
79589;BME280;69067;51.930;4.492;2023-07-28T11:59:17;100716.59;;;26.02;51.15
79589;BME280;69067;51.930;4.492;2023-07-28T12:01:58;100714.34;;;25.99;50.80
79589;BME280;69067;51.930;4.492;2023-07-28T12:04:29;100708.72;;;25.94;51.11
79589;BME280;69067;51.930;4.492;2023-07-28T12:09:53;100718.97;;;25.98;50.68
79589;BME280;69067;51.930;4.492;2023-07-28T12:12:30;100715.53;;;26.03;50.49
79589;BME280;69067;51.930;4.492;2023-07-28T12:14:57;100713.50;;;25.98;51.14
79589;BME280;69067;51.930;4.492;2023-07-28T12:17:30;100722.75;;;25.97;50.89
79589;BME280;69067;51.930;4.492;2023-07-28T12:20:04;100721.00;;;26.03;50.39
79589;BME280;69067;51.930;4.492;2023-07-28T12:22:43;100729.19;;;26.03;51.47
79589;BME280;69067;51.930;4.492;2023-07-28T12:25:10;100721.91;;;25.97;50.85
79589;BME280;69067;51.930;4.492;2023-07-28T12:27:37;100709.63;;;25.87;50.82
79589;BME280;69067;51.930;4.492;2023-07-28T12:30:04;100717.66;;;26.01;51.12
79589;BME280;69067;51.930;4.492;2023-07-28T12:32:30;100721.22;;;26.01;50.84
79589;BME280;69067;51.930;4.492;2023-07-28T12:34:56;100729.25;;;25.96;51.39
79589;BME280;69067;51.930;4.492;2023-07-28T12:37:22;100718.13;;;25.98;50.87
79589;BME280;69067;51.930;4.492;2023-07-28T12:39:48;100724.97;;;26.07;50.24
79589;BME280;69067;51.930;4.492;2023-07-28T12:42:14;100723.28;;;26.06;50.15
79589;BME280;69067;51.930;4.492;2023-07-28T12:44:41;100726.69;;;26.01;50.42
79589;BME280;69067;51.930;4.492;2023-07-28T12:47:08;100729.31;;;26.08;49.73
79589;BME280;69067;51.930;4.492;2023-07-28T12:49:34;100726.69;;;26.01;50.74
79589;BME280;69067;51.930;4.492;2023-07-28T12:52:04;100730.41;;;26.07;50.18
79589;BME280;69067;51.930;4.492;2023-07-28T12:54:32;100733.59;;;26.04;50.13
79589;BME280;69067;51.930;4.492;2023-07-28T12:56:58;100734.88;;;26.01;50.27
79589;BME280;69067;51.930;4.492;2023-07-28T12:59:24;100729.09;;;26.09;49.79
79589;BME280;69067;51.930;4.492;2023-07-28T13:01:50;100741.56;;;26.05;50.33